Aral Moreira, Brazil
Current Conditions -  °F | °C
As of 9:00 PM on Sunday 25 Jan 2015 (Local Time) from SBCG Reporting Station
Scattered Clouds Scattered Clouds  
Wind Chill: 73°   Ceiling: Unl
Heat Index: 73°   Visibility: 6mi
Dew Point: 68°   Wind: 5mph
Humidity: 83%   Direction: 300°WNW
Pressure: 29.94"   Gusts: NA
Location:  22.93°S, 55.64°W
Report Text: SBCG 260000Z 30004KT 9999 FEW025 SCT030 FEW040TCU 23/20 Q1014
Loading
Personal Weather Stations






























Interactive Weather Map New forecast layout! Learn more

10-Day Weather Forecast

Advertisements
Track Severe Weather on mobile